Time;durP1;ratioP1;P1;durP2;ratioP2;P2;SDS_P1;SDS_P2;PMS_P1;PMS_P2;Temp;Humidity;BMP_temperature;BMP_pressure;BME280_temperature;BME280_humidity;BME280_pressure;Samples;Min_cycle;Max_cycle;Signal;HPM_P1;HPM_P2
2022/01/16 00:00:32;;;;;;;156.80;26.80;;;3.00;52.10;;;;;;20520;6834;117029;-85
2022/01/16 00:06:00;;;;;;;246.32;32.05;;;2.90;52.20;;;;;;20372;6730;309841;-85
2022/01/16 00:08:37;;;;;;;191.00;33.37;;;3.20;51.30;;;;;;20397;6828;280878;-85
2022/01/16 00:11:13;;;;;;;160.27;27.97;;;3.20;51.30;;;;;;20611;6815;123930;-85
2022/01/16 00:13:48;;;;;;;72.00;22.67;;;3.00;51.30;;;;;;20621;6818;118180;-85
2022/01/16 00:16:23;;;;;;;222.87;31.87;;;2.60;51.80;;;;;;20337;6830;323048;-85
2022/01/16 00:18:59;;;;;;;128.70;25.60;;;2.60;52.10;;;;;;20550;6850;116854;-86
2022/01/16 00:21:40;;;;;;;92.77;21.20;;;2.50;51.90;;;;;;20610;6826;116977;-85
2022/01/16 00:24:13;;;;;;;74.93;20.23;;;2.20;52.10;;;;;;20604;6826;117999;-85
2022/01/16 00:26:48;;;;;;;95.38;26.87;;;1.90;52.60;;;;;;20381;6821;326255;-84
2022/01/16 00:29:24;;;;;;;65.43;26.70;;;2.00;53.10;;;;;;20358;6835;311870;-86
2022/01/16 00:32:04;;;;;;;132.90;24.70;;;2.40;52.50;;;;;;20541;6835;118417;-84
2022/01/16 00:34:36;;;;;;;79.50;21.90;;;2.30;52.10;;;;;;20585;6826;117990;-85
2022/01/16 00:37:13;;;;;;;50.87;18.77;;;1.80;52.80;;;;;;20525;6822;118129;-84
2022/01/16 00:39:48;;;;;;;37.57;21.07;;;1.80;52.60;;;;;;20623;6837;117696;-84
2022/01/16 00:42:34;;;;;;;;;;;;;;;;;;;;;
2022/01/16 00:44:59;;;;;;;26.73;20.00;;;1.70;52.50;;;;;;20563;6852;118239;-84
2022/01/16 00:47:36;;;;;;;24.00;19.30;;;1.50;52.60;;;;;;20293;6890;118191;-85
2022/01/16 00:50:11;;;;;;;30.30;24.63;;;1.40;52.10;;;;;;20272;6849;339571;-86
2022/01/16 00:52:52;;;;;;;33.33;21.00;;;1.60;52.00;;;;;;20510;6858;117828;-85
2022/01/16 00:55:22;;;;;;;31.67;20.40;;;1.50;52.10;;;;;;20514;6852;121717;-86
2022/01/16 00:57:58;;;;;;;23.40;17.63;;;1.30;51.70;;;;;;20289;6867;118167;-87
2022/01/16 01:00:34;;;;;;;26.50;22.83;;;1.10;52.10;;;;;;20265;6873;306466;-85
2022/01/16 01:03:11;;;;;;;24.50;18.63;;;1.30;52.30;;;;;;20578;6861;115101;-85
2022/01/16 01:05:45;;;;;;;17.73;15.63;;;1.30;51.80;;;;;;20634;6855;117135;-85
2022/01/16 01:08:20;;;;;;;13.57;12.23;;;1.20;51.90;;;;;;20534;6844;120515;-85
2022/01/16 01:10:57;;;;;;;13.80;12.43;;;1.00;52.10;;;;;;20632;6830;117791;-85
2022/01/16 01:13:43;;;;;;;18.57;16.77;;;0.90;52.40;;;;;;20375;6831;281466;-85
2022/01/16 01:16:14;;;;;;;16.90;15.10;;;1.00;52.70;;;;;;20603;6800;122337;-84
2022/01/16 01:18:44;;;;;;;18.23;14.87;;;1.10;52.20;;;;;;20741;6800;116597;-85
2022/01/16 01:21:29;;;;;;;15.57;13.67;;;1.00;52.40;;;;;;20686;6800;117639;-85
2022/01/16 01:24:04;;;;;;;16.17;13.63;;;0.80;52.50;;;;;;20651;6800;120402;-87
2022/01/16 01:26:50;;;;;;;19.93;17.93;;;0.70;52.80;;;;;;20404;6800;310524;-85
2022/01/16 01:29:19;;;;;;;25.93;23.13;;;1.40;51.70;;;;;;20466;6800;316924;-85
2022/01/16 01:31:52;;;;;;;25.93;19.97;;;1.30;51.60;;;;;;20683;6800;120205;-87
2022/01/16 01:34:30;;;;;;;28.27;24.30;;;1.40;51.30;;;;;;20471;6800;288435;-85
2022/01/16 01:37:04;;;;;;;27.87;24.83;;;1.50;51.50;;;;;;20378;6800;319774;-87
2022/01/16 01:39:40;;;;;;;25.77;22.97;;;1.80;51.50;;;;;;20463;6800;310968;-86
2022/01/16 01:42:16;;;;;;;26.83;22.00;;;2.00;50.20;;;;;;20658;6800;130015;-86
2022/01/16 01:53:40;;;;;;;64.83;28.87;;;1.60;50.70;;;;;;20454;6703;324652;-86
2022/01/16 01:56:21;;;;;;;82.17;23.33;;;1.60;50.00;;;;;;20531;6830;117776;-86
2022/01/16 01:58:54;;;;;;;48.60;27.63;;;1.50;50.00;;;;;;20372;6817;313432;-86
2022/01/16 02:01:31;;;;;;;24.87;19.87;;;1.50;49.70;;;;;;20657;6800;124049;-86
2022/01/16 02:04:08;;;;;;;26.20;23.42;;;1.40;49.60;;;;;;20401;6808;338333;-86
2022/01/16 02:06:43;;;;;;;26.80;23.90;;;1.40;49.60;;;;;;20399;6800;314674;-86
2022/01/16 02:09:19;;;;;;;20.70;18.10;;;1.60;48.50;;;;;;20672;6800;118220;-86
2022/01/16 02:11:55;;;;;;;21.57;17.67;;;1.40;48.30;;;;;;20668;6800;117711;-86
2022/01/16 02:14:49;;;;;;;22.90;20.50;;;1.10;49.10;;;;;;20445;6800;280487;-86
2022/01/16 02:29:12;;;;;;;23.43;15.90;;;0.50;50.60;;;;;;20678;6800;117943;-86
2022/01/16 02:31:25;;;;;;;22.10;19.77;;;0.30;50.70;;;;;;20429;6860;313096;-87
2022/01/16 02:37:00;;;;;;;24.93;22.13;;;0.80;50.80;;;;;;20388;6800;285613;-86
2022/01/16 02:39:34;;;;;;;23.30;20.80;;;0.80;50.80;;;;;;20457;6800;338470;-85
2022/01/16 02:42:08;;;;;;;21.30;18.63;;;1.20;49.90;;;;;;20657;6800;127407;-86
2022/01/16 02:45:00;;;;;;;21.13;17.30;;;1.20;49.70;;;;;;20672;6800;117535;-85
2022/01/16 02:47:25;;;;;;;26.17;23.33;;;0.90;50.00;;;;;;20361;6800;315772;-85
2022/01/16 02:50:02;;;;;;;26.00;16.43;;;0.90;49.70;;;;;;20630;6830;118043;-86
2022/01/16 02:52:38;;;;;;;38.73;16.30;;;0.90;49.60;;;;;;20631;6815;118222;-86
2022/01/16 02:55:15;;;;;;;62.83;23.80;;;0.70;50.40;;;;;;20412;6819;280496;-86
2022/01/16 02:57:50;;;;;;;84.33;20.37;;;0.80;50.80;;;;;;20482;6823;118070;-86
2022/01/16 03:00:25;;;;;;;82.13;23.83;;;0.80;50.50;;;;;;20404;6815;310626;-86
2022/01/16 03:03:01;;;;;;;241.90;23.53;;;0.90;51.00;;;;;;20627;6815;117665;-85
2022/01/16 03:05:38;;;;;;;32.23;18.87;;;0.90;50.60;;;;;;20589;6830;117862;-85
2022/01/16 03:08:13;;;;;;;27.70;17.30;;;0.70;50.60;;;;;;20453;6819;118128;-86
2022/01/16 03:13:41;;;;;;;20.80;13.73;;;0.20;50.80;;;;;;19620;7153;126270;-86
2022/01/16 03:16:20;;;;;;;19.17;17.30;;;0.00;51.10;;;;;;20016;6872;314161;-86
2022/01/16 03:21:55;;;;;;;25.10;21.73;;;0.20;51.20;;;;;;20399;6817;309091;-85
2022/01/16 03:24:33;;;;;;;26.03;20.67;;;0.40;50.00;;;;;;20678;6800;117856;-86
2022/01/16 03:27:09;;;;;;;22.90;16.20;;;0.40;49.80;;;;;;20555;6811;118248;-86
2022/01/16 03:29:45;;;;;;;52.57;18.57;;;0.20;50.30;;;;;;20666;6807;117971;-85
2022/01/16 03:32:22;;;;;;;87.77;17.77;;;0.00;50.80;;;;;;20614;6818;119866;-87
2022/01/16 03:34:57;;;;;;;68.32;22.00;;;-0.10;51.20;;;;;;20449;6805;278298;-85
2022/01/16 03:37:33;;;;;;;88.90;20.27;;;0.10;52.00;;;;;;20541;6805;117615;-85
2022/01/16 03:40:11;;;;;;;126.68;26.60;;;0.20;51.60;;;;;;20420;6805;308574;-86
2022/01/16 03:42:45;;;;;;;98.30;22.63;;;0.50;51.80;;;;;;20454;6805;308041;-86
2022/01/16 03:45:20;;;;;;;204.55;27.33;;;0.80;51.30;;;;;;20437;6805;313349;-86
2022/01/16 03:47:56;;;;;;;119.82;26.27;;;1.40;50.00;;;;;;20302;6805;280734;-86
2022/01/16 03:50:32;;;;;;;138.77;24.83;;;1.40;50.00;;;;;;20444;6805;308906;-86
2022/01/16 03:53:07;;;;;;;96.40;24.77;;;1.60;49.70;;;;;;20461;6805;279527;-85
2022/01/16 03:55:43;;;;;;;224.57;28.25;;;1.70;49.10;;;;;;20459;6805;290093;-85
2022/01/16 03:58:18;;;;;;;363.67;25.47;;;1.80;48.90;;;;;;20465;6805;123447;-85
2022/01/16 04:00:54;;;;;;;209.70;22.20;;;1.50;48.80;;;;;;20673;6805;121948;-85
2022/01/16 04:03:30;;;;;;;273.20;28.00;;;1.10;50.00;;;;;;20467;6805;278299;-85
2022/01/16 04:06:06;;;;;;;179.93;27.30;;;1.10;50.00;;;;;;20431;6806;338433;-85
2022/01/16 04:08:41;;;;;;;131.77;23.47;;;1.30;49.50;;;;;;20677;6806;118459;-85
2022/01/16 04:11:17;;;;;;;59.70;19.33;;;1.20;49.40;;;;;;20673;6806;120833;-85
2022/01/16 04:14:02;;;;;;;150.60;20.20;;;0.90;49.80;;;;;;20625;6820;118045;-85
2022/01/16 04:16:31;;;;;;;198.20;19.70;;;0.60;50.30;;;;;;20537;6835;118151;-86
2022/01/16 04:19:04;;;;;;;168.73;26.47;;;0.30;50.60;;;;;;20456;6806;313459;-86
2022/01/16 04:21:39;;;;;;;64.30;23.77;;;0.40;51.10;;;;;;20458;6806;311449;-85
2022/01/16 04:24:15;;;;;;;84.27;19.40;;;0.70;50.60;;;;;;20645;6806;120221;-85
2022/01/16 04:26:50;;;;;;;36.07;16.43;;;0.70;50.20;;;;;;20603;6806;118120;-85
2022/01/16 04:29:26;;;;;;;22.03;13.87;;;0.50;50.50;;;;;;20666;6806;117517;-84
2022/01/16 04:32:02;;;;;;;19.97;18.07;;;0.20;50.80;;;;;;20441;6806;309432;-86
2022/01/16 04:34:37;;;;;;;15.80;14.20;;;0.30;50.20;;;;;;20671;6806;118750;-85
2022/01/16 04:37:14;;;;;;;14.07;12.67;;;0.20;49.90;;;;;;20569;6806;118011;-84
2022/01/16 04:39:52;;;;;;;13.83;12.43;;;0.10;50.30;;;;;;20664;6806;114725;-87
2022/01/16 04:45:21;;;;;;;13.33;11.93;;;-0.20;51.00;;;;;;20671;6805;117646;-85
2022/01/16 04:47:58;;;;;;;14.53;12.63;;;-0.40;51.10;;;;;;20518;6805;118089;-85
2022/01/16 04:50:33;;;;;;;35.33;14.87;;;-0.50;51.40;;;;;;20681;6805;120623;-85
2022/01/16 04:53:09;;;;;;;58.63;16.67;;;-0.60;51.60;;;;;;20679;6805;121210;-85
2022/01/16 04:55:45;;;;;;;42.53;15.20;;;-0.70;52.00;;;;;;20674;6805;118131;-85
2022/01/16 04:58:30;;;;;;;66.90;22.63;;;-0.70;51.90;;;;;;20257;6805;287281;-85
2022/01/16 05:00:56;;;;;;;42.80;24.27;;;-0.50;51.60;;;;;;20459;6805;308741;-85
2022/01/16 05:03:32;;;;;;;26.50;18.00;;;-0.10;50.60;;;;;;20669;6805;118192;-85
2022/01/16 05:06:10;;;;;;;22.93;16.37;;;-0.20;50.70;;;;;;20643;6805;142762;-86
2022/01/16 05:08:44;;;;;;;23.40;20.73;;;-0.30;50.70;;;;;;20454;6805;333541;-85
2022/01/16 05:11:25;;;;;;;18.37;16.10;;;-0.10;50.90;;;;;;20672;6805;117704;-85
2022/01/16 05:16:38;;;;;;;17.27;15.47;;;0.00;50.10;;;;;;20540;6872;117487;-84
2022/01/16 05:19:14;;;;;;;16.80;14.97;;;-0.10;50.20;;;;;;20621;6815;117975;-84
2022/01/16 05:21:51;;;;;;;16.40;14.67;;;-0.20;50.10;;;;;;20652;6808;118330;-85
2022/01/16 05:24:31;;;;;;;18.53;14.50;;;-0.30;50.60;;;;;;20614;6818;120479;-84
2022/01/16 05:27:05;;;;;;;22.07;19.77;;;-0.40;51.10;;;;;;20384;6806;310630;-84
2022/01/16 05:29:39;;;;;;;24.00;21.60;;;-0.20;50.80;;;;;;20468;6806;279196;-85
2022/01/16 05:32:16;;;;;;;22.50;20.25;;;0.20;49.10;;;;;;20444;6806;344258;-84
2022/01/16 05:34:52;;;;;;;17.97;16.07;;;0.40;48.80;;;;;;20682;6806;117464;-87
2022/01/16 05:37:27;;;;;;;20.93;16.60;;;0.30;48.10;;;;;;20571;6806;117652;-85
2022/01/16 05:40:04;;;;;;;23.23;20.67;;;0.00;48.60;;;;;;20466;6806;306792;-85
2022/01/16 05:42:39;;;;;;;20.93;16.80;;;0.00;48.60;;;;;;20682;6806;120398;-86
2022/01/16 05:45:15;;;;;;;23.50;21.03;;;-0.10;48.60;;;;;;20433;6862;311715;-84
2022/01/16 05:47:50;;;;;;;22.53;17.93;;;0.00;49.10;;;;;;20519;6806;118682;-87
2022/01/16 05:50:26;;;;;;;96.20;23.90;;;0.00;49.20;;;;;;20449;6805;281763;-84
2022/01/16 05:53:02;;;;;;;87.40;26.17;;;0.30;49.40;;;;;;20480;6803;283419;-84
2022/01/16 05:55:44;;;;;;;79.77;26.33;;;0.30;50.10;;;;;;20570;6800;278016;-94
2022/01/16 05:58:16;;;;;;;83.80;22.30;;;0.60;49.20;;;;;;20456;6815;181822;-84
2022/01/16 06:00:53;;;;;;;32.77;19.50;;;0.40;49.20;;;;;;20680;6800;123728;-87
2022/01/16 06:03:29;;;;;;;53.20;24.90;;;0.10;49.80;;;;;;20466;6800;313466;-85
2022/01/16 06:06:04;;;;;;;71.90;21.83;;;0.20;50.40;;;;;;20654;6800;119295;-84
2022/01/16 06:08:40;;;;;;;32.13;23.07;;;0.20;50.30;;;;;;20480;6800;312312;-85
2022/01/16 06:11:15;;;;;;;32.60;19.13;;;0.30;50.80;;;;;;20696;6800;117883;-85
2022/01/16 06:13:54;;;;;;;22.93;17.90;;;0.30;50.50;;;;;;20644;6815;123470;-90
2022/01/16 06:16:30;;;;;;;19.77;16.40;;;0.10;50.70;;;;;;20605;6872;117799;-88
2022/01/16 06:19:05;;;;;;;18.33;15.43;;;-0.10;51.00;;;;;;20643;6800;117630;-85
2022/01/16 06:21:51;;;;;;;;;;;;;;;;;;;;;
2022/01/16 06:24:20;;;;;;;24.57;21.97;;;-0.10;51.70;;;;;;20464;6800;436087;-84
2022/01/16 06:26:56;;;;;;;50.73;20.73;;;0.30;49.70;;;;;;20557;6800;118194;-84
2022/01/16 06:29:32;;;;;;;66.43;27.65;;;0.30;50.20;;;;;;20387;6800;337817;-86
2022/01/16 06:32:07;;;;;;;27.73;20.30;;;0.50;50.50;;;;;;20671;6800;118379;-82
2022/01/16 06:34:44;;;;;;;26.23;19.43;;;0.30;50.80;;;;;;20702;6800;117553;-88
2022/01/16 06:37:23;;;;;;;51.42;27.15;;;0.20;50.70;;;;;;20372;6815;339615;-87
2022/01/16 06:39:58;;;;;;;44.60;28.97;;;0.40;51.30;;;;;;20298;6830;279448;-86
2022/01/16 06:42:35;;;;;;;43.85;28.58;;;0.80;50.80;;;;;;20396;6830;282746;-89
2022/01/16 06:45:09;;;;;;;144.53;25.63;;;1.10;50.30;;;;;;20417;6815;117741;-90
2022/01/16 06:47:45;;;;;;;25.30;20.43;;;1.00;50.10;;;;;;20416;6848;117921;-89
2022/01/16 06:50:21;;;;;;;31.00;26.33;;;0.80;50.40;;;;;;20139;6819;298938;-88
2022/01/16 06:52:56;;;;;;;67.93;23.17;;;0.80;50.90;;;;;;20600;6819;117576;-89
2022/01/16 06:55:32;;;;;;;24.20;20.10;;;0.80;50.70;;;;;;20601;6830;73914;-85
2022/01/16 06:58:09;;;;;;;24.30;19.77;;;0.60;50.80;;;;;;20388;6834;127495;-87
2022/01/16 07:00:46;;;;;;;29.00;25.90;;;0.30;51.80;;;;;;20447;6804;313124;-85
2022/01/16 07:03:20;;;;;;;74.97;42.40;;;0.40;50.90;;;;;;20643;6819;117637;-86
2022/01/16 07:06:05;;;;;;;25.40;19.87;;;0.40;50.40;;;;;;20694;6800;117609;-84
2022/01/16 07:08:35;;;;;;;25.53;19.10;;;0.20;50.50;;;;;;20637;6868;118296;-87
2022/01/16 07:11:11;;;;;;;26.13;18.93;;;0.00;50.90;;;;;;20635;6800;118545;-88
2022/01/16 07:13:47;;;;;;;26.45;23.75;;;-0.20;51.30;;;;;;20419;6815;284068;-89
2022/01/16 07:16:23;;;;;;;22.90;19.43;;;0.00;50.80;;;;;;20635;6823;120417;-93
2022/01/16 07:19:00;;;;;;;22.27;18.63;;;0.00;50.80;;;;;;20638;6815;117710;-90
2022/01/16 07:21:35;;;;;;;26.87;24.13;;;-0.10;51.70;;;;;;20060;6883;280568;-90
2022/01/16 07:24:16;;;;;;;26.67;23.87;;;0.00;51.40;;;;;;20448;6800;308704;-87
2022/01/16 07:26:47;;;;;;;21.97;18.97;;;0.40;50.20;;;;;;20670;6800;116780;-83
2022/01/16 07:29:22;;;;;;;20.50;17.97;;;0.40;50.00;;;;;;20737;6800;118081;-87
2022/01/16 07:32:07;;;;;;;21.97;17.77;;;0.20;50.40;;;;;;20655;6800;118600;-94
2022/01/16 07:34:33;;;;;;;24.77;22.33;;;0.00;51.20;;;;;;20484;6800;278393;-84
2022/01/16 07:37:09;;;;;;;24.60;22.20;;;0.10;51.20;;;;;;20364;6800;316069;-83
2022/01/16 07:39:44;;;;;;;25.27;22.77;;;0.50;50.80;;;;;;20445;6860;313045;-85
2022/01/16 07:42:20;;;;;;;21.17;18.63;;;0.80;50.00;;;;;;20655;6800;123746;-82
2022/01/16 07:44:56;;;;;;;19.10;17.10;;;0.80;49.80;;;;;;20636;6815;123662;-84
2022/01/16 07:47:31;;;;;;;20.27;16.30;;;0.60;50.80;;;;;;20553;6823;121132;-83
2022/01/16 07:50:07;;;;;;;20.37;16.70;;;0.40;50.80;;;;;;20689;6800;117259;-85
2022/01/16 07:52:42;;;;;;;19.30;16.63;;;0.20;51.30;;;;;;20694;6800;117882;-86
2022/01/16 07:55:21;;;;;;;17.70;15.80;;;0.10;51.80;;;;;;20679;6800;117705;-84
2022/01/16 07:57:54;;;;;;;18.30;14.67;;;0.00;52.20;;;;;;20520;6800;67961;-86
2022/01/16 08:00:29;;;;;;;22.17;19.97;;;0.00;52.60;;;;;;20315;6815;305791;-86
2022/01/16 08:03:05;;;;;;;19.70;17.53;;;0.30;52.60;;;;;;20682;6808;68696;-87
2022/01/16 08:05:50;;;;;;;18.03;16.20;;;0.50;52.50;;;;;;20542;6819;118145;-88
2022/01/16 08:08:23;;;;;;;21.65;19.55;;;0.40;52.40;;;;;;20178;6847;348818;-88
2022/01/16 08:10:52;;;;;;;22.90;20.70;;;0.80;52.40;;;;;;20381;6830;303827;-89
2022/01/16 08:13:28;;;;;;;22.17;20.03;;;1.30;51.30;;;;;;20381;6830;309821;-90
2022/01/16 08:16:07;;;;;;;22.80;20.60;;;2.10;49.70;;;;;;20299;6826;280339;-89
2022/01/16 08:18:44;;;;;;;19.80;17.70;;;2.10;49.70;;;;;;20616;6800;117860;-89
2022/01/16 08:21:19;;;;;;;20.20;16.73;;;2.10;49.70;;;;;;20646;6815;117686;-89
2022/01/16 08:23:55;;;;;;;17.60;15.43;;;2.00;50.90;;;;;;20565;6815;117818;-88
2022/01/16 08:26:31;;;;;;;18.40;16.40;;;1.90;50.70;;;;;;20611;6815;118250;-89
2022/01/16 08:29:07;;;;;;;17.80;14.73;;;1.80;50.90;;;;;;20602;6815;123901;-88
2022/01/16 08:31:44;;;;;;;22.05;19.85;;;2.10;50.90;;;;;;20427;6818;308561;-86
2022/01/16 08:34:21;;;;;;;19.97;17.17;;;2.10;50.90;;;;;;20580;6815;290650;-86
2022/01/16 08:36:58;;;;;;;17.37;15.50;;;2.30;50.50;;;;;;20560;6819;117680;-84
2022/01/16 08:39:35;;;;;;;21.42;19.17;;;2.40;50.80;;;;;;20475;6800;307329;-87
2022/01/16 08:42:10;;;;;;;18.47;16.50;;;2.60;50.50;;;;;;20617;6815;119859;-85
2022/01/16 08:44:49;;;;;;;22.33;20.03;;;2.80;50.30;;;;;;20420;6819;279711;-83
2022/01/16 08:47:23;;;;;;;21.67;19.47;;;3.00;50.20;;;;;;20346;6805;321787;-85
2022/01/16 08:49:58;;;;;;;20.57;16.60;;;3.50;49.60;;;;;;20658;6805;118771;-82
2022/01/16 08:52:34;;;;;;;21.47;19.37;;;3.50;49.30;;;;;;20449;6806;282188;-83
2022/01/16 08:55:09;;;;;;;22.63;20.17;;;3.70;49.30;;;;;;20439;6806;308568;-84
2022/01/16 08:57:45;;;;;;;17.93;15.77;;;4.00;48.70;;;;;;20527;6806;118113;-83
2022/01/16 09:00:20;;;;;;;21.00;16.13;;;4.00;48.60;;;;;;20656;6806;119519;-84
2022/01/16 09:02:57;;;;;;;17.93;15.93;;;3.90;49.20;;;;;;20681;6806;117550;-83
2022/01/16 09:05:32;;;;;;;20.77;18.83;;;3.70;49.60;;;;;;20462;6806;307176;-84
2022/01/16 09:08:07;;;;;;;25.73;23.33;;;3.90;49.80;;;;;;20272;6806;291141;-88
2022/01/16 09:10:43;;;;;;;21.13;19.13;;;4.30;49.20;;;;;;20455;6806;307620;-83
2022/01/16 09:13:18;;;;;;;21.10;19.10;;;4.60;48.50;;;;;;20492;6800;278878;-85
2022/01/16 09:15:56;;;;;;;18.70;16.50;;;4.90;48.00;;;;;;20655;6815;123471;-88
2022/01/16 09:18:31;;;;;;;19.13;16.93;;;4.90;48.00;;;;;;20462;6871;120161;-84
2022/01/16 09:21:06;;;;;;;17.03;15.33;;;4.60;48.50;;;;;;20678;6800;117484;-83
2022/01/16 09:23:42;;;;;;;16.50;14.90;;;4.50;49.10;;;;;;20664;6800;117683;-83
2022/01/16 09:26:17;;;;;;;15.50;14.10;;;4.30;49.30;;;;;;20440;6800;310080;-83
2022/01/16 09:28:53;;;;;;;15.13;13.67;;;4.40;49.00;;;;;;20691;6800;117520;-85
2022/01/16 09:31:29;;;;;;;15.43;13.93;;;4.60;49.60;;;;;;20690;6800;117849;-85
2022/01/16 09:34:04;;;;;;;15.90;14.30;;;4.60;49.90;;;;;;20631;6815;117641;-81
2022/01/16 09:36:45;;;;;;;18.17;16.53;;;4.70;50.00;;;;;;20412;6808;319280;-89
2022/01/16 09:39:21;;;;;;;17.70;15.80;;;5.00;49.00;;;;;;20648;6815;117200;-84
2022/01/16 09:41:56;;;;;;;18.93;17.20;;;5.30;48.80;;;;;;20473;6808;287567;-81
2022/01/16 09:44:32;;;;;;;20.33;18.43;;;5.60;48.00;;;;;;20447;6818;280063;-83
2022/01/16 09:47:09;;;;;;;18.83;17.13;;;6.40;46.70;;;;;;20379;6805;340013;-84
2022/01/16 09:49:44;;;;;;;20.25;18.45;;;6.40;46.10;;;;;;20464;6805;308669;-83
2022/01/16 09:52:19;;;;;;;18.87;16.90;;;6.70;45.40;;;;;;20666;6805;123113;-84
2022/01/16 09:54:55;;;;;;;17.73;15.90;;;6.60;45.70;;;;;;20658;6805;118011;-85
2022/01/16 09:57:30;;;;;;;19.53;17.83;;;6.30;46.20;;;;;;20314;6805;340181;-90
2022/01/16 10:00:06;;;;;;;20.27;16.73;;;6.40;46.10;;;;;;20519;6820;123529;-85
2022/01/16 10:02:42;;;;;;;20.33;18.43;;;6.30;46.10;;;;;;20396;6820;312933;-81
2022/01/16 10:05:31;;;;;;;20.67;18.77;;;6.40;45.80;;;;;;20383;6821;280262;-86
2022/01/16 10:08:13;;;;;;;19.00;17.07;;;6.60;45.50;;;;;;20453;6820;118023;-87
2022/01/16 10:10:50;;;;;;;16.87;15.17;;;6.60;45.60;;;;;;20608;6812;117707;-87
2022/01/16 10:13:32;;;;;;;20.07;18.17;;;6.40;46.20;;;;;;20296;6827;325840;-83
2022/01/16 10:16:01;;;;;;;18.20;16.40;;;6.50;45.90;;;;;;20605;6815;120852;-84
2022/01/16 10:18:39;;;;;;;18.43;16.23;;;6.60;46.10;;;;;;20526;6845;117981;-84
2022/01/16 10:21:15;;;;;;;19.40;17.60;;;6.50;46.40;;;;;;20334;6845;281554;-85
2022/01/16 10:23:56;;;;;;;17.83;15.93;;;6.70;45.80;;;;;;20585;6826;120181;-85
2022/01/16 10:26:26;;;;;;;18.00;16.07;;;6.80;45.70;;;;;;20571;6822;117589;-85
2022/01/16 10:29:01;;;;;;;19.90;18.07;;;6.80;46.00;;;;;;20383;6822;303064;-83
2022/01/16 10:31:37;;;;;;;19.08;17.27;;;7.00;45.20;;;;;;20439;6815;336421;-82
2022/01/16 10:34:26;;;;;;;19.87;18.00;;;7.30;44.40;;;;;;20396;6826;338107;-87
2022/01/16 10:37:01;;;;;;;18.43;16.50;;;7.60;44.10;;;;;;20554;6826;118113;-83
2022/01/16 10:39:37;;;;;;;16.80;15.10;;;7.60;44.20;;;;;;20651;6820;116559;-81
2022/01/16 10:42:13;;;;;;;17.73;15.63;;;7.40;44.80;;;;;;20594;6826;118058;-80
2022/01/16 10:44:48;;;;;;;17.07;15.27;;;7.30;45.30;;;;;;20643;6826;118666;-82
2022/01/16 10:47:23;;;;;;;19.33;17.57;;;7.10;45.60;;;;;;20333;6826;289553;-80
2022/01/16 10:50:12;;;;;;;18.77;16.37;;;7.40;44.90;;;;;;20614;6822;117758;-82
2022/01/16 10:52:58;;;;;;;17.10;15.50;;;7.40;44.90;;;;;;20375;6881;120683;-80
2022/01/16 10:55:47;;;;;;;19.27;17.47;;;7.40;45.20;;;;;;20490;6807;278310;-85
2022/01/16 10:58:23;;;;;;;17.87;16.07;;;7.60;44.40;;;;;;20456;6841;118995;-83
2022/01/16 11:01:03;;;;;;;16.93;15.23;;;7.70;44.50;;;;;;20658;6807;119970;-84
2022/01/16 11:03:45;;;;;;;19.53;17.73;;;7.60;44.70;;;;;;20441;6815;308917;-84
2022/01/16 11:06:22;;;;;;;17.70;15.90;;;7.80;43.80;;;;;;20569;6826;119876;-82
2022/01/16 11:08:57;;;;;;;20.47;18.47;;;7.80;43.80;;;;;;20338;6845;309963;-84
2022/01/16 11:11:33;;;;;;;17.43;15.73;;;7.90;43.30;;;;;;20498;6857;117868;-83
2022/01/16 11:14:08;;;;;;;20.50;18.60;;;8.00;43.50;;;;;;20284;6856;335462;-85
2022/01/16 11:16:44;;;;;;;20.20;18.40;;;8.10;43.20;;;;;;20288;6830;341065;-87
2022/01/16 11:19:23;;;;;;;19.07;17.13;;;8.30;42.90;;;;;;20590;6808;116783;-86
2022/01/16 11:22:03;;;;;;;19.93;18.03;;;8.30;42.90;;;;;;20402;6815;279801;-82
2022/01/16 11:25:10;;;;;;;20.77;18.77;;;8.40;42.60;;;;;;20364;6826;286903;-86
2022/01/16 11:27:13;;;;;;;19.20;17.30;;;8.60;42.10;;;;;;20420;6901;118609;-85
2022/01/16 11:30:01;;;;;;;20.30;18.40;;;8.50;42.60;;;;;;20380;6830;283837;-90
2022/01/16 11:32:27;;;;;;;19.47;17.77;;;8.50;42.60;;;;;;20386;6823;309878;-82
2022/01/16 11:35:02;;;;;;;19.17;17.27;;;8.70;42.50;;;;;;20588;6808;118052;-84
2022/01/16 11:37:38;;;;;;;19.53;17.53;;;8.70;42.80;;;;;;20461;6834;68943;-87
2022/01/16 11:40:20;;;;;;;19.80;17.90;;;8.60;43.50;;;;;;20387;6827;343128;-90
2022/01/16 11:43:16;;;;;;;18.13;16.00;;;8.70;43.10;;;;;;20700;6812;118047;-86
2022/01/16 11:46:11;;;;;;;20.00;16.20;;;8.80;43.20;;;;;;20675;6846;118028;-89
2022/01/16 11:48:40;;;;;;;17.60;15.53;;;8.60;43.40;;;;;;20672;6849;122128;-87
2022/01/16 11:51:37;;;;;;;16.97;15.17;;;8.30;43.60;;;;;;20650;6824;117678;-86
2022/01/16 11:54:21;;;;;;;17.90;16.10;;;8.10;43.90;;;;;;20644;6824;118206;-87
2022/01/16 11:57:00;;;;;;;17.40;15.60;;;7.90;44.20;;;;;;20599;6834;117631;-82
2022/01/16 11:59:36;;;;;;;19.47;17.57;;;7.90;44.60;;;;;;20213;6882;311141;-85
2022/01/16 12:02:11;;;;;;;19.98;18.17;;;8.00;43.70;;;;;;20174;6950;314309;-85
2022/01/16 12:04:47;;;;;;;18.90;17.07;;;8.40;43.20;;;;;;20653;6824;117491;-86
2022/01/16 12:07:44;;;;;;;19.48;17.67;;;8.40;43.20;;;;;;20271;6855;314055;-83
2022/01/16 12:10:16;;;;;;;18.98;17.17;;;8.40;42.60;;;;;;20363;6842;280623;-88
2022/01/16 12:12:52;;;;;;;19.45;17.55;;;8.70;42.30;;;;;;20319;6893;308819;-85
2022/01/16 12:15:28;;;;;;;18.20;16.30;;;9.00;42.10;;;;;;20736;6822;116503;-83
2022/01/16 12:18:04;;;;;;;17.70;15.77;;;8.70;43.70;;;;;;20469;6822;119580;-87
2022/01/16 12:20:39;;;;;;;18.33;16.43;;;8.70;42.90;;;;;;20626;6835;120698;-85
2022/01/16 12:23:15;;;;;;;18.03;16.20;;;8.50;43.30;;;;;;20562;6850;117899;-84
2022/01/16 12:25:50;;;;;;;17.87;16.07;;;8.30;43.60;;;;;;20601;6841;120157;-84
2022/01/16 12:28:29;;;;;;;21.37;19.07;;;8.20;43.80;;;;;;20164;6839;281954;-86
2022/01/16 12:31:07;;;;;;;21.62;19.08;;;8.30;43.10;;;;;;20446;6825;295134;-85
2022/01/16 12:33:40;;;;;;;19.80;17.77;;;8.60;42.80;;;;;;20642;6825;122842;-86
2022/01/16 12:36:19;;;;;;;20.30;18.10;;;8.60;42.90;;;;;;20618;6825;122721;-86
2022/01/16 12:39:01;;;;;;;19.63;17.47;;;8.40;43.40;;;;;;20657;6825;119514;-86
2022/01/16 12:41:49;;;;;;;22.00;19.92;;;8.20;43.80;;;;;;20430;6825;338193;-85
2022/01/16 12:44:16;;;;;;;22.50;20.40;;;8.60;42.90;;;;;;20369;6840;338824;-85
2022/01/16 12:46:52;;;;;;;18.50;16.63;;;8.60;42.90;;;;;;20495;6840;120588;-85
2022/01/16 12:49:27;;;;;;;21.77;18.10;;;8.50;42.80;;;;;;20592;6848;117769;-86
2022/01/16 12:52:03;;;;;;;22.65;20.45;;;8.20;43.20;;;;;;20395;6849;280660;-85
2022/01/16 12:54:39;;;;;;;24.08;21.73;;;8.20;43.10;;;;;;20327;6848;288305;-85
2022/01/16 12:57:14;;;;;;;24.42;22.13;;;8.30;42.90;;;;;;20259;6845;311203;-85
2022/01/16 12:59:51;;;;;;;24.83;22.13;;;8.00;43.10;;;;;;20574;6836;117753;-85
2022/01/16 13:02:29;;;;;;;24.85;22.45;;;8.00;43.10;;;;;;20345;6836;310550;-85
2022/01/16 13:05:06;;;;;;;20.40;18.27;;;7.60;44.30;;;;;;20597;6830;121568;-86
2022/01/16 13:07:42;;;;;;;24.05;21.65;;;7.60;44.30;;;;;;20237;6843;285946;-85
2022/01/16 13:10:17;;;;;;;21.50;19.20;;;7.50;45.10;;;;;;20628;6807;119391;-84
2022/01/16 13:12:53;;;;;;;23.50;21.25;;;7.30;45.10;;;;;;20416;6807;329093;-86
2022/01/16 13:15:28;;;;;;;20.60;18.50;;;7.30;45.80;;;;;;20621;6809;118051;-85
2022/01/16 13:18:13;;;;;;;24.33;21.87;;;7.20;45.80;;;;;;20290;6803;324225;-85
2022/01/16 13:20:49;;;;;;;19.57;17.50;;;7.20;46.20;;;;;;20667;6809;117919;-91
2022/01/16 13:23:25;;;;;;;18.27;15.27;;;7.00;46.10;;;;;;20635;6824;117727;-84
2022/01/16 13:26:00;;;;;;;19.23;16.33;;;6.80;46.40;;;;;;20610;6834;119108;-85
2022/01/16 13:28:42;;;;;;;19.45;17.55;;;6.50;46.70;;;;;;20404;6824;339642;-86
2022/01/16 13:31:11;;;;;;;17.30;15.13;;;6.60;47.20;;;;;;20535;6842;118321;-88
2022/01/16 13:33:50;;;;;;;20.20;18.20;;;6.50;46.90;;;;;;20379;6824;333712;-85
2022/01/16 13:36:23;;;;;;;20.62;18.58;;;6.60;47.20;;;;;;20300;6886;346526;-86
2022/01/16 13:39:03;;;;;;;19.77;17.77;;;6.90;47.00;;;;;;20310;6908;310832;-85
2022/01/16 13:41:36;;;;;;;17.67;15.70;;;7.10;46.50;;;;;;20530;6855;117835;-86
2022/01/16 13:44:28;;;;;;;19.55;17.62;;;6.90;46.80;;;;;;20363;6837;310704;-85
2022/01/16 13:47:04;;;;;;;19.10;15.47;;;6.80;46.70;;;;;;20482;6857;119855;-86
2022/01/16 13:49:44;;;;;;;18.33;16.53;;;6.70;46.80;;;;;;20504;6807;327648;-85
2022/01/16 13:52:24;;;;;;;17.73;16.03;;;6.90;46.90;;;;;;20401;6822;310716;-86